Time;durP1;ratioP1;P1;durP2;ratioP2;P2;SDS_P1;SDS_P2;PMS_P1;PMS_P2;Temp;Humidity;BMP_temperature;BMP_pressure;BME280_temperature;BME280_humidity;BME280_pressure;Samples;Min_cycle;Max_cycle;Signal;HPM_P1;HPM_P2
2020/12/23 00:00:32;;;;;;;6.82;2.83;;;;;;;11.99;100.00;100496.19;10278030;28;20105;-69
2020/12/23 00:05:41;;;;;;;6.90;3.00;;;;;;;11.94;100.00;100488.59;10291291;28;20062;-69
2020/12/23 00:10:42;;;;;;;5.93;2.38;;;;;;;12.00;100.00;100493.50;10288018;23;20046;-68
2020/12/23 00:15:43;;;;;;;6.53;2.80;;;;;;;12.00;100.00;100503.16;10257801;28;20048;-68
2020/12/23 00:20:44;;;;;;;5.35;2.70;;;;;;;12.05;100.00;100495.00;10223203;28;20066;-68
2020/12/23 00:25:45;;;;;;;6.88;2.53;;;;;;;12.05;100.00;100484.50;10289169;28;20051;-69
2020/12/23 00:30:46;;;;;;;7.60;2.30;;;;;;;11.94;100.00;100488.59;10289171;28;20047;-69
2020/12/23 00:35:59;;;;;;;4.30;2.05;;;;;;;11.95;100.00;100474.56;10279996;28;20174;-69
2020/12/23 00:41:00;;;;;;;5.75;2.20;;;;;;;11.92;100.00;100480.00;10282027;28;20071;-69
2020/12/23 00:46:02;;;;;;;5.10;2.45;;;;;;;12.00;100.00;100482.16;10285946;28;20055;-69
2020/12/23 00:51:07;;;;;;;4.28;2.10;;;;;;;11.93;100.00;100481.69;10288521;28;20051;-69
2020/12/23 00:56:11;;;;;;;4.60;2.10;;;;;;;11.89;100.00;100474.91;10288536;28;20102;-69
2020/12/23 01:01:14;;;;;;;7.00;2.05;;;;;;;11.91;100.00;100466.97;10288272;28;20097;-69
2020/12/23 01:06:21;;;;;;;5.35;2.00;;;;;;;11.93;100.00;100473.81;10284692;28;20047;-69
2020/12/23 01:11:22;;;;;;;4.38;1.98;;;;;;;11.94;100.00;100470.25;10243542;28;20132;-69
2020/12/23 01:16:23;;;;;;;5.07;2.25;;;;;;;11.89;100.00;100469.66;10297559;28;20050;-69
2020/12/23 01:21:24;;;;;;;5.57;2.17;;;;;;;11.87;100.00;100465.47;10297053;28;20454;-69
2020/12/23 01:26:25;;;;;;;6.97;2.10;;;;;;;11.85;100.00;100470.78;10297200;28;20051;-69
2020/12/23 01:31:26;;;;;;;5.18;2.03;;;;;;;11.81;100.00;100471.91;10297318;28;20051;-69
2020/12/23 01:36:37;;;;;;;4.18;1.98;;;;;;;11.80;100.00;100472.84;10296752;28;20130;-69
2020/12/23 01:41:38;;;;;;;3.80;2.10;;;;;;;11.80;100.00;100462.34;10271160;28;20054;-69
2020/12/23 01:46:39;;;;;;;5.97;1.90;;;;;;;11.82;100.00;100468.34;10296507;28;20055;-69
2020/12/23 01:51:40;;;;;;;4.35;2.13;;;;;;;11.73;100.00;100466.28;10296784;28;20447;-68
2020/12/23 01:56:45;;;;;;;4.10;1.88;;;;;;;11.81;100.00;100482.41;10295003;28;20057;-69
2020/12/23 02:01:48;;;;;;;5.43;1.80;;;;;;;11.77;100.00;100480.88;10293172;28;20179;-69
2020/12/23 02:06:55;;;;;;;6.03;2.20;;;;;;;11.84;100.00;100481.34;10294448;28;20078;-68
2020/12/23 02:11:56;;;;;;;6.15;1.80;;;;;;;11.76;100.00;100476.56;10285115;28;20050;-69
2020/12/23 02:16:57;;;;;;;6.30;2.30;;;;;;;11.77;100.00;100464.31;10294646;28;20054;-69
2020/12/23 02:21:59;;;;;;;4.80;1.70;;;;;;;11.73;100.00;100461.03;10293141;28;20047;-69
2020/12/23 02:26:59;;;;;;;5.90;1.70;;;;;;;11.66;100.00;100470.13;10294295;28;20109;-69
2020/12/23 02:32:00;;;;;;;4.15;2.10;;;;;;;11.70;100.00;100463.78;10298231;28;20059;-69
2020/12/23 02:37:14;;;;;;;3.90;2.05;;;;;;;11.65;100.00;100471.06;10305713;28;20494;-69
2020/12/23 02:42:16;;;;;;;6.57;2.30;;;;;;;11.67;100.00;100469.22;10300322;28;20043;-69
2020/12/23 02:47:18;;;;;;;6.40;2.05;;;;;;;11.64;100.00;100445.78;10308232;28;20058;-69
2020/12/23 02:52:19;;;;;;;3.42;1.95;;;;;;;11.56;100.00;100435.75;10297989;28;20046;-69
2020/12/23 02:57:20;;;;;;;5.45;2.17;;;;;;;11.58;100.00;100433.84;10292558;28;20058;-68
2020/12/23 03:02:21;;;;;;;4.55;2.03;;;;;;;11.58;100.00;100431.25;10291617;28;20054;-68
2020/12/23 03:07:33;;;;;;;4.47;2.20;;;;;;;11.68;100.00;100417.63;10291701;28;20469;-69
2020/12/23 03:12:35;;;;;;;4.15;1.90;;;;;;;11.66;100.00;100415.06;10283561;28;20057;-68
2020/12/23 03:17:36;;;;;;;6.05;2.33;;;;;;;11.71;100.00;100417.44;10222574;28;20500;-69
2020/12/23 03:22:37;;;;;;;4.03;1.95;;;;;;;11.63;100.00;100425.72;10212136;29;20151;-69
2020/12/23 03:27:38;;;;;;;6.00;2.42;;;;;;;11.67;100.00;100421.16;10211406;29;20051;-68
2020/12/23 03:32:39;;;;;;;4.15;2.10;;;;;;;11.63;100.00;100425.72;10210946;29;20055;-69
2020/12/23 03:37:51;;;;;;;4.07;2.17;;;;;;;11.66;100.00;100411.59;10211469;29;20110;-69
2020/12/23 03:42:52;;;;;;;4.97;1.80;;;;;;;11.71;100.00;100406.94;10260424;28;20051;-69
2020/12/23 03:47:53;;;;;;;4.68;1.63;;;;;;;11.73;100.00;100405.97;10290177;28;20054;-69
2020/12/23 03:52:54;;;;;;;2.90;1.20;;;;;;;11.86;100.00;100404.28;10290407;28;20051;-68
2020/12/23 03:57:55;;;;;;;1.98;0.93;;;;;;;11.90;100.00;100400.53;10290308;28;20055;-68
2020/12/23 04:02:56;;;;;;;1.58;0.90;;;;;;;11.89;100.00;100383.13;10289081;28;20058;-68
2020/12/23 04:08:10;;;;;;;1.73;0.75;;;;;;;11.97;100.00;100383.50;10289304;28;20110;-69
2020/12/23 04:13:11;;;;;;;2.28;0.80;;;;;;;11.92;100.00;100385.56;10281189;28;20506;-69
2020/12/23 04:18:12;;;;;;;1.90;0.98;;;;;;;11.86;100.00;100385.94;10289191;28;20098;-68
2020/12/23 04:23:14;;;;;;;2.47;0.82;;;;;;;11.86;100.00;100380.69;10289505;28;20042;-69
2020/12/23 04:28:15;;;;;;;2.22;1.00;;;;;;;11.82;100.00;100355.59;10289016;28;20050;-68
2020/12/23 04:33:16;;;;;;;1.60;0.70;;;;;;;11.86;100.00;100357.09;10287828;28;20062;-69
2020/12/23 04:38:31;;;;;;;1.63;0.80;;;;;;;11.83;100.00;100351.19;10288928;28;20051;-69
2020/12/23 04:43:33;;;;;;;3.67;1.00;;;;;;;11.82;100.00;100347.72;10279462;28;20055;-69
2020/12/23 04:48:36;;;;;;;3.50;1.02;;;;;;;11.81;100.00;100340.78;10288462;28;20105;-69
2020/12/23 04:53:37;;;;;;;2.40;1.00;;;;;;;11.79;100.00;100331.31;10288453;28;20055;-69
2020/12/23 04:58:38;;;;;;;2.35;1.10;;;;;;;11.79;100.00;100318.19;10287985;28;20549;-70
2020/12/23 05:03:40;;;;;;;3.17;1.50;;;;;;;11.73;100.00;100322.06;10270257;28;20066;-69
2020/12/23 05:08:49;;;;;;;3.28;1.05;;;;;;;11.70;100.00;100318.72;10253746;28;20047;-69
2020/12/23 05:13:50;;;;;;;3.45;1.50;;;;;;;11.68;100.00;100318.84;10273410;28;20113;-69
2020/12/23 05:18:56;;;;;;;4.55;1.88;;;;;;;11.69;100.00;100314.41;10287593;28;20043;-69
2020/12/23 05:23:57;;;;;;;3.00;1.50;;;;;;;11.72;100.00;100299.34;10288288;28;20051;-68
2020/12/23 05:28:59;;;;;;;3.72;1.58;;;;;;;11.72;100.00;100295.88;10287714;28;20129;-68
2020/12/23 05:34:03;;;;;;;4.57;1.52;;;;;;;11.84;100.00;100309.09;10286600;28;20499;-69
2020/12/23 05:39:10;;;;;;;7.35;2.15;;;;;;;11.67;100.00;100295.31;10287502;28;20047;-69
2020/12/23 05:44:17;;;;;;;4.25;1.90;;;;;;;11.67;100.00;100298.78;10278560;28;20478;-69
2020/12/23 05:49:20;;;;;;;4.82;2.33;;;;;;;11.61;100.00;100291.28;10287442;28;20565;-69
2020/12/23 05:54:21;;;;;;;8.18;3.00;;;;;;;11.63;100.00;100299.88;10290184;28;20054;-69
2020/12/23 05:59:22;;;;;;;4.85;2.40;;;;;;;11.56;100.00;100299.44;10294271;28;20203;-68
2020/12/23 06:04:23;;;;;;;5.22;2.53;;;;;;;11.54;100.00;100301.28;10293902;28;20072;-68
2020/12/23 06:09:38;;;;;;;6.72;2.72;;;;;;;11.55;100.00;100308.22;10293209;28;20570;-68
2020/12/23 06:14:50;;;;;;;5.82;3.00;;;;;;;11.53;100.00;100311.84;10286108;28;20490;-68
2020/12/23 06:19:57;;;;;;;4.95;2.63;;;;;;;11.50;100.00;100309.44;10294471;28;20058;-69
2020/12/23 06:25:00;;;;;;;4.50;2.30;;;;;;;11.48;100.00;100306.03;10293699;28;20051;-69
2020/12/23 06:30:03;;;;;;;5.97;3.03;;;;;;;11.45;100.00;100296.59;10293969;28;20050;-69
2020/12/23 06:35:04;;;;;;;6.50;3.55;;;;;;;11.44;100.00;100294.06;10292709;28;20050;-69
2020/12/23 06:40:12;;;;;;;5.68;3.00;;;;;;;11.43;100.00;100297.59;10291198;28;20050;-69
2020/12/23 06:45:14;;;;;;;6.20;2.97;;;;;;;11.41;100.00;100283.78;10284903;28;20058;-69
2020/12/23 06:50:30;;;;;;;4.63;2.40;;;;;;;11.40;100.00;100287.31;10293069;28;20051;-69
2020/12/23 06:55:57;;;;;;;6.30;2.70;;;;;;;11.35;100.00;100286.75;10292529;28;20058;-69
2020/12/23 07:01:15;;;;;;;6.30;3.40;;;;;;;11.35;100.00;100278.88;10287171;28;20094;-69
2020/12/23 07:06:29;;;;;;;5.97;2.83;;;;;;;11.35;100.00;100284.13;10242464;28;20405;-69
2020/12/23 07:11:34;;;;;;;6.53;2.50;;;;;;;11.31;100.00;100274.78;10239301;28;20111;-69
2020/12/23 07:16:41;;;;;;;5.40;2.55;;;;;;;11.27;100.00;100276.75;10252640;28;20126;-69
2020/12/23 07:21:48;;;;;;;6.07;2.65;;;;;;;11.29;100.00;100276.63;10235656;29;20044;-69
2020/12/23 07:26:50;;;;;;;6.57;2.72;;;;;;;11.28;100.00;100278.41;10212039;29;20051;-69
2020/12/23 07:31:52;;;;;;;6.75;2.67;;;;;;;11.29;100.00;100285.34;10194624;29;20554;-70
2020/12/23 07:36:57;;;;;;;4.07;2.35;;;;;;;11.27;100.00;100281.97;10213444;29;20048;-69
2020/12/23 07:42:02;;;;;;;5.97;2.28;;;;;;;11.28;100.00;100278.41;10264454;28;20039;-70
2020/12/23 07:47:06;;;;;;;4.00;2.20;;;;;;;11.28;100.00;100286.25;10291205;28;20102;-69
2020/12/23 07:52:08;;;;;;;5.43;2.33;;;;;;;11.26;100.00;100276.81;10291252;28;20093;-69
2020/12/23 07:57:08;;;;;;;4.82;2.30;;;;;;;11.24;100.00;100265.56;10250329;28;20104;-70
2020/12/23 08:02:10;;;;;;;6.32;2.78;;;;;;;11.22;100.00;100272.69;10248367;29;20051;-70
2020/12/23 08:07:20;;;;;;;6.75;2.67;;;;;;;11.28;100.00;100277.56;10245070;29;20058;-70
2020/12/23 08:12:21;;;;;;;6.00;2.55;;;;;;;11.26;100.00;100271.56;10245838;28;20082;-69
2020/12/23 08:17:23;;;;;;;6.18;2.85;;;;;;;11.27;100.00;100270.66;10249771;28;20499;-69
2020/12/23 08:22:25;;;;;;;7.28;3.28;;;;;;;11.29;100.00;100274.84;10235790;28;20055;-69
2020/12/23 08:27:26;;;;;;;5.97;2.83;;;;;;;11.41;100.00;100281.16;10238024;29;20051;-70
2020/12/23 08:32:33;;;;;;;5.57;2.88;;;;;;;11.39;100.00;100275.16;10238199;29;20043;-70
2020/12/23 08:37:35;;;;;;;5.18;2.70;;;;;;;11.36;100.00;100280.56;10244787;29;20048;-70
2020/12/23 08:42:36;;;;;;;5.05;2.25;;;;;;;11.39;100.00;100275.16;10232124;29;20055;-69
2020/12/23 08:47:37;;;;;;;4.65;2.15;;;;;;;11.44;100.00;100280.94;10239662;29;20115;-70
2020/12/23 08:52:46;;;;;;;5.32;2.45;;;;;;;11.46;100.00;100287.81;10249477;28;20054;-69
2020/12/23 08:57:47;;;;;;;5.13;2.45;;;;;;;11.50;100.00;100284.06;10241402;28;20051;-69
2020/12/23 09:02:49;;;;;;;11.00;3.55;;;;;;;11.53;100.00;100288.25;10245577;29;20513;-70
2020/12/23 09:08:02;;;;;;;4.75;2.33;;;;;;;11.55;100.00;100282.00;10244489;29;20454;-69
2020/12/23 09:13:13;;;;;;;5.63;2.10;;;;;;;11.70;100.00;100275.00;10251957;28;20102;-70
2020/12/23 09:18:14;;;;;;;4.40;2.38;;;;;;;11.66;100.00;100270.88;10245092;29;20113;-70
2020/12/23 09:23:19;;;;;;;5.47;2.42;;;;;;;11.70;100.00;100259.25;10229205;28;20463;-70
2020/12/23 09:28:23;;;;;;;4.10;2.22;;;;;;;11.72;100.00;100257.41;10231332;28;20808;-70
2020/12/23 09:33:24;;;;;;;6.50;2.97;;;;;;;11.86;100.00;100264.44;10255055;29;20530;-70
2020/12/23 09:38:30;;;;;;;7.63;2.60;;;;;;;11.85;100.00;100254.88;10252492;28;20059;-70
2020/12/23 09:43:33;;;;;;;5.43;2.28;;;;;;;11.84;100.00;100256.66;10250005;28;20065;-70
2020/12/23 09:48:35;;;;;;;6.28;2.95;;;;;;;11.97;100.00;100241.03;10255389;28;20054;-70
2020/12/23 09:53:36;;;;;;;5.07;2.28;;;;;;;12.07;100.00;100241.28;10237921;28;20122;-70
2020/12/23 09:58:38;;;;;;;6.57;2.80;;;;;;;12.10;100.00;100230.59;10254597;29;20055;-70
2020/12/23 10:03:39;;;;;;;4.07;1.98;;;;;;;12.14;100.00;100209.28;10251230;29;20051;-70
2020/12/23 10:08:40;;;;;;;4.82;2.28;;;;;;;12.22;100.00;100198.34;10253989;28;20062;-70
2020/12/23 10:13:41;;;;;;;5.72;2.47;;;;;;;12.22;100.00;100185.22;10272972;28;20429;-70
2020/12/23 10:18:42;;;;;;;6.15;2.05;;;;;;;12.16;100.00;100182.97;10254248;29;20048;-70
2020/12/23 10:23:43;;;;;;;5.40;2.13;;;;;;;12.23;100.00;100171.16;10234821;29;20051;-70
2020/12/23 10:28:44;;;;;;;7.28;2.40;;;;;;;12.21;100.00;100165.16;10246305;28;20051;-70
2020/12/23 10:33:45;;;;;;;5.45;2.13;;;;;;;12.26;100.00;100142.91;10250451;28;20054;-70
2020/12/23 10:38:46;;;;;;;4.43;2.28;;;;;;;12.30;100.00;100148.81;10236324;28;20109;-71
2020/12/23 10:43:47;;;;;;;3.78;1.95;;;;;;;12.28;100.00;100130.56;10247615;28;20159;-72
2020/12/23 10:48:48;;;;;;;5.20;1.42;;;;;;;12.24;100.00;100120.38;10240805;29;20063;-71
2020/12/23 10:53:49;;;;;;;5.13;1.85;;;;;;;12.29;100.00;100119.09;10242104;29;20491;-71
2020/12/23 10:58:50;;;;;;;5.05;2.20;;;;;;;12.41;100.00;100117.44;10234542;29;20061;-71
2020/12/23 11:03:54;;;;;;;5.63;2.45;;;;;;;12.50;100.00;100114.22;10234475;28;20439;-71
2020/12/23 11:08:55;;;;;;;6.65;2.20;;;;;;;12.52;100.00;100109.72;10234709;28;20055;-71
2020/12/23 11:13:56;;;;;;;5.93;2.13;;;;;;;12.56;100.00;100107.72;10234229;29;20063;-71
2020/12/23 11:18:57;;;;;;;5.07;2.80;;;;;;;12.63;100.00;100094.06;10223584;29;20158;-71
2020/12/23 11:23:58;;;;;;;9.13;3.08;;;;;;;12.59;100.00;100103.13;10231070;29;20083;-71
2020/12/23 11:29:00;;;;;;;7.93;3.47;;;;;;;12.69;100.00;100088.41;10239008;29;20145;-70
2020/12/23 11:34:03;;;;;;;4.63;2.25;;;;;;;12.73;100.00;100086.41;10219177;29;20056;-70
2020/12/23 11:39:04;;;;;;;4.22;2.10;;;;;;;12.76;100.00;100081.78;10230168;28;20055;-71
2020/12/23 11:44:05;;;;;;;5.20;2.05;;;;;;;12.83;99.65;100080.44;10228960;28;20063;-70
2020/12/23 11:49:06;;;;;;;4.50;1.52;;;;;;;12.79;100.00;100083.38;10220706;29;20055;-69
2020/12/23 11:54:10;;;;;;;3.72;1.60;;;;;;;12.83;100.00;100080.44;10228561;28;20059;-69
2020/12/23 11:59:15;;;;;;;3.58;1.35;;;;;;;12.79;100.00;100065.84;10229796;28;20558;-70
2020/12/23 12:04:15;;;;;;;3.50;1.70;;;;;;;12.82;100.00;100060.34;10229364;29;20475;-70
2020/12/23 12:09:16;;;;;;;4.40;2.15;;;;;;;12.80;100.00;100061.41;10230556;28;20065;-70
2020/12/23 12:14:17;;;;;;;4.43;1.88;;;;;;;12.80;100.00;100043.84;10233840;28;20059;-69
2020/12/23 12:19:18;;;;;;;2.90;1.30;;;;;;;12.84;100.00;100034.84;10219832;28;20059;-69
2020/12/23 12:24:19;;;;;;;4.13;1.90;;;;;;;12.78;100.00;100035.25;10230962;29;20172;-70
2020/12/23 12:29:20;;;;;;;3.75;1.40;;;;;;;12.73;99.37;100026.00;10231276;29;20152;-69
2020/12/23 12:34:22;;;;;;;2.30;1.27;;;;;;;12.82;99.22;100020.97;10229601;28;20058;-69
2020/12/23 12:39:23;;;;;;;2.88;1.27;;;;;;;12.65;100.00;100018.66;10229776;28;20047;-69
2020/12/23 12:44:25;;;;;;;2.50;1.15;;;;;;;12.68;99.11;100017.63;10230801;29;20515;-69
2020/12/23 12:49:26;;;;;;;2.40;1.17;;;;;;;12.70;98.36;100005.19;10231892;29;20047;-69
2020/12/23 12:54:27;;;;;;;4.80;1.23;;;;;;;12.63;99.43;99996.94;10246378;28;20054;-69
2020/12/23 12:59:28;;;;;;;5.55;1.80;;;;;;;12.61;99.65;99984.84;10246393;29;20392;-69
2020/12/23 13:04:29;;;;;;;2.95;1.48;;;;;;;12.57;100.00;99986.84;10239773;28;20130;-69
2020/12/23 13:09:30;;;;;;;4.60;1.65;;;;;;;12.58;100.00;99980.66;10245596;29;20057;-69
2020/12/23 13:14:31;;;;;;;4.10;1.40;;;;;;;12.53;99.68;99974.88;10248781;29;20055;-69
2020/12/23 13:19:31;;;;;;;3.65;1.80;;;;;;;12.45;98.28;99979.78;10240504;28;20082;-69
2020/12/23 13:24:33;;;;;;;3.20;1.60;;;;;;;12.44;98.49;99967.66;10247960;29;20057;-69
2020/12/23 13:29:33;;;;;;;4.57;1.83;;;;;;;12.42;98.60;99956.41;10246557;29;20047;-69
2020/12/23 13:34:34;;;;;;;4.25;1.95;;;;;;;12.41;98.80;99952.94;10241881;28;20066;-69
2020/12/23 13:39:35;;;;;;;4.65;1.90;;;;;;;12.44;97.96;99941.41;10245714;29;20055;-69
2020/12/23 13:44:36;;;;;;;4.50;1.80;;;;;;;12.39;98.07;99927.75;10248123;28;20092;-69
2020/12/23 13:49:37;;;;;;;4.40;1.85;;;;;;;12.39;96.75;99935.63;10242822;29;20511;-69
2020/12/23 13:54:38;;;;;;;6.35;2.22;;;;;;;12.27;98.55;99928.59;10243630;29;20051;-69
2020/12/23 13:59:40;;;;;;;4.13;1.75;;;;;;;12.31;98.62;99930.03;10245478;28;20551;-68
2020/12/23 14:04:41;;;;;;;5.65;2.53;;;;;;;12.38;97.89;99931.31;10243383;28;20095;-69
2020/12/23 14:09:42;;;;;;;7.18;4.05;;;;;;;12.36;97.21;99918.28;10240972;29;20047;-68
2020/12/23 14:14:43;;;;;;;5.50;3.10;;;;;;;12.30;96.50;99908.22;10245396;28;20055;-68
2020/12/23 14:19:43;;;;;;;4.32;2.13;;;;;;;12.24;97.46;99913.88;10250117;28;20039;-68
2020/12/23 14:24:44;;;;;;;4.47;2.13;;;;;;;12.28;96.31;99904.88;10254947;29;20063;-69
2020/12/23 14:29:45;;;;;;;6.00;2.30;;;;;;;12.27;96.75;99891.84;10249927;28;20043;-70
2020/12/23 14:34:46;;;;;;;4.75;1.77;;;;;;;12.35;96.16;99884.25;10242943;28;20144;-69
2020/12/23 14:39:47;;;;;;;4.30;2.00;;;;;;;12.33;96.22;99891.44;10248887;28;20048;-70
2020/12/23 14:44:59;;;;;;;3.95;1.80;;;;;;;12.38;95.32;99900.66;10239177;28;20058;-69
2020/12/23 14:50:00;;;;;;;4.43;1.60;;;;;;;12.43;94.78;99897.72;10242567;28;20047;-70
2020/12/23 14:55:02;;;;;;;3.20;1.40;;;;;;;12.35;95.53;99900.00;10251590;28;20491;-70
2020/12/23 15:00:06;;;;;;;3.30;1.70;;;;;;;12.35;95.97;99915.75;10246975;28;20388;-70
2020/12/23 15:05:07;;;;;;;4.28;1.73;;;;;;;12.35;97.30;99936.75;10250779;29;20065;-70
2020/12/23 15:10:08;;;;;;;3.40;1.45;;;;;;;12.26;98.99;99968.88;10249727;28;20051;-70
2020/12/23 15:15:20;;;;;;;4.22;1.40;;;;;;;12.21;100.00;99968.34;10223166;29;20066;-70
2020/12/23 15:20:21;;;;;;;4.75;1.55;;;;;;;11.91;100.00;100003.56;10249526;29;20513;-70
2020/12/23 15:25:22;;;;;;;5.72;2.08;;;;;;;11.79;100.00;99986.00;10248492;28;20499;-72
2020/12/23 15:30:23;;;;;;;5.53;2.63;;;;;;;11.70;100.00;99993.59;10249359;28;20110;-71
2020/12/23 15:35:24;;;;;;;6.38;2.40;;;;;;;11.62;100.00;99988.03;10233317;29;20063;-71
2020/12/23 15:40:25;;;;;;;5.63;2.38;;;;;;;11.57;100.00;99983.09;10247656;29;20043;-71
2020/12/23 15:45:36;;;;;;;6.53;2.65;;;;;;;11.68;100.00;99991.09;10252630;28;20124;-69
2020/12/23 15:50:37;;;;;;;5.05;2.30;;;;;;;11.52;100.00;99986.03;10248297;29;20047;-71
2020/12/23 15:55:38;;;;;;;4.97;2.80;;;;;;;11.49;100.00;99970.47;10217841;28;20089;-72
2020/12/23 16:00:39;;;;;;;8.15;4.63;;;;;;;11.51;100.00;99976.47;10225146;29;20507;-71
2020/12/23 16:05:40;;;;;;;6.47;3.38;;;;;;;11.41;100.00;99970.13;10250312;28;20404;-71
2020/12/23 16:10:42;;;;;;;7.43;3.10;;;;;;;11.41;100.00;99971.91;10240764;29;20059;-72
2020/12/23 16:15:55;;;;;;;6.35;3.38;;;;;;;11.43;100.00;99967.41;10233453;29;20118;-72
2020/12/23 16:20:56;;;;;;;8.60;4.00;;;;;;;11.43;100.00;99977.88;10253148;29;20043;-71
2020/12/23 16:25:57;;;;;;;8.57;3.47;;;;;;;11.43;100.00;99968.25;10256019;28;20055;-72
2020/12/23 16:30:58;;;;;;;6.47;3.25;;;;;;;11.38;100.00;99961.63;10248128;29;20047;-71
2020/12/23 16:35:59;;;;;;;7.20;3.28;;;;;;;11.40;100.00;99978.09;10260504;29;20043;-71
2020/12/23 16:40:59;;;;;;;6.82;3.70;;;;;;;11.48;100.00;99983.66;10256750;28;20043;-71
2020/12/23 16:46:12;;;;;;;7.32;3.80;;;;;;;11.42;100.00;99982.31;10261780;28;20554;-71
2020/12/23 16:51:17;;;;;;;8.27;3.40;;;;;;;11.48;100.00;99992.38;10228691;29;20054;-71
2020/12/23 16:56:18;;;;;;;6.28;3.25;;;;;;;11.44;100.00;99997.91;10230888;29;20054;-71
2020/12/23 17:01:18;;;;;;;6.65;3.70;;;;;;;11.50;100.00;100010.63;10245334;29;20059;-70
2020/12/23 17:06:19;;;;;;;6.68;3.90;;;;;;;11.46;100.00;100009.16;10232232;29;20051;-70
2020/12/23 17:11:20;;;;;;;8.68;3.80;;;;;;;11.47;100.00;100023.94;10245379;28;20079;-70
2020/12/23 17:16:28;;;;;;;6.78;2.90;;;;;;;11.40;100.00;100031.34;10247639;29;20142;-70
2020/12/23 17:21:34;;;;;;;5.20;2.67;;;;;;;11.42;100.00;100039.13;10247818;29;20047;-70
2020/12/23 17:26:35;;;;;;;7.00;3.17;;;;;;;11.45;100.00;100041.53;10230595;29;20518;-70
2020/12/23 17:31:36;;;;;;;6.32;2.70;;;;;;;11.40;100.00;100039.22;10242558;29;20057;-71
2020/12/23 17:36:37;;;;;;;4.45;2.35;;;;;;;11.39;100.00;100039.28;10247389;29;20055;-70
2020/12/23 17:41:43;;;;;;;5.57;2.10;;;;;;;11.40;100.00;100040.97;10245905;29;20059;-70
2020/12/23 17:46:53;;;;;;;6.40;2.38;;;;;;;11.50;100.00;100035.06;10254203;28;20130;-69
2020/12/23 17:51:59;;;;;;;5.30;2.88;;;;;;;11.37;100.00;100035.94;10251402;28;20050;-70
2020/12/23 17:57:00;;;;;;;5.32;2.97;;;;;;;11.33;100.00;100039.69;10254903;29;20558;-70
2020/12/23 18:02:01;;;;;;;5.68;2.70;;;;;;;11.30;100.00;100053.81;10250148;29;20051;-70
2020/12/23 18:07:02;;;;;;;7.15;3.55;;;;;;;11.31;100.00;100052.06;10254934;28;20051;-70
2020/12/23 18:12:03;;;;;;;7.25;3.85;;;;;;;11.35;100.00;100051.75;10249078;29;20051;-71
2020/12/23 18:17:08;;;;;;;6.85;4.18;;;;;;;11.31;100.00;100054.66;10252502;29;20051;-71
2020/12/23 18:22:11;;;;;;;10.05;3.65;;;;;;;11.24;100.00;100045.50;10251707;29;20058;-70
2020/12/23 18:27:12;;;;;;;6.68;3.25;;;;;;;11.24;100.00;100053.34;10253450;28;20423;-71
2020/12/23 18:32:14;;;;;;;6.55;3.70;;;;;;;11.36;100.00;100050.81;10250871;29;20059;-71
2020/12/23 18:37:15;;;;;;;6.93;4.38;;;;;;;11.29;100.00;100056.53;10235631;28;20047;-70
2020/12/23 18:42:16;;;;;;;6.22;3.63;;;;;;;11.29;100.00;100059.16;10252666;28;20188;-70
2020/12/23 18:47:25;;;;;;;6.40;3.72;;;;;;;11.32;100.00;100056.34;10245461;29;20051;-70
2020/12/23 18:52:26;;;;;;;9.88;5.00;;;;;;;11.28;100.00;100055.69;10245653;29;20158;-71
2020/12/23 18:57:27;;;;;;;7.70;4.68;;;;;;;11.27;100.00;100055.81;10249169;29;20424;-71
2020/12/23 19:02:28;;;;;;;9.70;4.70;;;;;;;11.31;100.00;100046.81;10240682;28;20078;-71
2020/12/23 19:07:31;;;;;;;7.90;4.20;;;;;;;11.17;100.00;100033.75;10244906;28;20047;-71
2020/12/23 19:12:33;;;;;;;8.13;3.80;;;;;;;11.13;100.00;100012.97;10243469;28;20054;-70
2020/12/23 19:17:43;;;;;;;7.60;3.85;;;;;;;11.07;100.00;100012.53;10243975;29;20114;-71
2020/12/23 19:22:46;;;;;;;6.57;3.08;;;;;;;11.04;100.00;99987.34;10241447;29;20043;-71
2020/12/23 19:27:50;;;;;;;7.05;3.50;;;;;;;11.01;100.00;99981.47;10245799;28;20214;-71
2020/12/23 19:32:53;;;;;;;9.07;4.55;;;;;;;10.94;100.00;99975.78;10243344;29;20047;-71
2020/12/23 19:37:59;;;;;;;7.25;4.05;;;;;;;10.96;100.00;99968.66;10239806;28;20644;-71
2020/12/23 19:43:03;;;;;;;6.25;3.70;;;;;;;10.93;100.00;99966.22;10241031;28;20071;-71
2020/12/23 19:48:08;;;;;;;8.35;3.28;;;;;;;10.92;100.00;99995.97;10241434;28;20475;-71
2020/12/23 19:53:09;;;;;;;7.00;4.35;;;;;;;10.97;100.00;99995.69;10241562;28;20102;-70
2020/12/23 19:58:10;;;;;;;6.65;4.32;;;;;;;10.99;100.00;99976.31;10241750;28;20065;-70
2020/12/23 20:03:12;;;;;;;8.70;5.13;;;;;;;10.97;100.00;99938.09;10239150;29;20117;-70
2020/12/23 20:08:14;;;;;;;10.18;6.03;;;;;;;10.96;100.00;99952.97;10243041;29;20047;-70
2020/12/23 20:13:15;;;;;;;7.30;3.92;;;;;;;10.91;100.00;99938.47;10224332;28;20566;-70
2020/12/23 20:18:21;;;;;;;7.95;3.40;;;;;;;10.93;100.00;99961.00;10223997;29;20062;-70
2020/12/23 20:23:24;;;;;;;7.32;3.67;;;;;;;10.94;100.00;99946.97;10241961;28;20053;-70
2020/12/23 20:28:25;;;;;;;5.55;2.90;;;;;;;10.86;100.00;99962.31;10243362;29;20058;-70
2020/12/23 20:33:26;;;;;;;6.15;2.40;;;;;;;10.87;100.00;99952.69;10237669;28;20051;-71
2020/12/23 20:38:46;;;;;;;5.35;2.08;;;;;;;10.82;100.00;99937.25;10243554;29;20194;-70
2020/12/23 20:43:48;;;;;;;5.00;2.00;;;;;;;10.81;100.00;99932.97;10240410;28;20479;-70
2020/12/23 20:48:49;;;;;;;4.20;2.25;;;;;;;10.80;100.00;99946.16;10245686;29;20054;-70
2020/12/23 20:53:50;;;;;;;6.82;2.00;;;;;;;10.81;100.00;99953.06;10237192;29;20039;-70
2020/12/23 20:58:51;;;;;;;5.57;2.17;;;;;;;10.75;100.00;99928.13;10236924;29;20054;-70
2020/12/23 21:03:52;;;;;;;3.50;1.67;;;;;;;10.70;100.00;99920.56;10232359;29;20380;-70
2020/12/23 21:08:55;;;;;;;6.05;1.80;;;;;;;10.60;100.00;99916.81;10234370;29;20043;-70
2020/12/23 21:13:56;;;;;;;4.55;1.90;;;;;;;10.62;100.00;99911.47;10237923;29;20114;-70
2020/12/23 21:18:57;;;;;;;4.97;2.88;;;;;;;10.50;100.00;99918.34;10219869;29;20181;-70
2020/12/23 21:23:58;;;;;;;4.75;2.17;;;;;;;10.55;100.00;99928.50;10225287;29;20094;-70
2020/12/23 21:29:00;;;;;;;4.15;2.17;;;;;;;10.50;100.00;99923.56;10248436;28;20440;-70
2020/12/23 21:34:02;;;;;;;5.20;1.90;;;;;;;10.61;100.00;99920.28;10245733;28;20051;-70
2020/12/23 21:39:04;;;;;;;4.22;2.10;;;;;;;10.50;100.00;99914.88;10249261;29;20083;-69
2020/12/23 21:44:06;;;;;;;8.25;2.78;;;;;;;10.52;100.00;99912.97;10236285;28;20046;-70
2020/12/23 21:49:18;;;;;;;5.00;2.15;;;;;;;10.48;100.00;99894.03;10295584;28;20054;-69
2020/12/23 21:54:19;;;;;;;4.93;1.88;;;;;;;10.38;100.00;99903.38;10279405;28;20047;-69
2020/12/23 21:59:20;;;;;;;5.90;1.70;;;;;;;10.48;100.00;99911.50;10296018;28;20494;-69
2020/12/23 22:04:21;;;;;;;4.68;1.77;;;;;;;10.40;100.00;99921.59;10295163;28;20146;-69
2020/12/23 22:09:22;;;;;;;4.07;1.60;;;;;;;10.39;100.00;99914.69;10295208;28;20051;-69
2020/12/23 22:14:23;;;;;;;8.23;2.33;;;;;;;10.32;100.00;99913.38;10296633;28;20054;-69
2020/12/23 22:19:35;;;;;;;3.70;1.55;;;;;;;10.36;100.00;99914.88;10295826;28;20051;-69
2020/12/23 22:24:35;;;;;;;3.15;1.23;;;;;;;10.48;100.00;99917.56;10295067;28;20053;-69
2020/12/23 22:29:36;;;;;;;4.50;1.80;;;;;;;10.40;100.00;99919.84;10295078;28;20529;-69
2020/12/23 22:34:37;;;;;;;4.00;2.00;;;;;;;10.40;100.00;99927.69;10293421;28;20067;-69
2020/12/23 22:39:38;;;;;;;2.70;1.10;;;;;;;10.40;100.00;99895.44;10293577;28;20054;-70
2020/12/23 22:44:39;;;;;;;3.58;1.25;;;;;;;10.43;100.00;99901.31;10261495;28;20541;-69
2020/12/23 22:49:53;;;;;;;3.25;1.33;;;;;;;10.46;100.00;99895.06;10294767;28;20102;-69
2020/12/23 22:54:54;;;;;;;3.65;1.25;;;;;;;10.46;100.00;99902.91;10294172;28;20110;-69
2020/12/23 22:59:56;;;;;;;2.08;0.70;;;;;;;10.51;100.00;99916.56;10271005;28;20055;-69